sensor_id;sensor_type;location;lat;lon;timestamp;P1;durP1;ratioP1;P2;durP2;ratioP2
49223;SDS011;35050;51.316;5.994;2023-03-19T00:02:16;1.40;;;0.90;;
49223;SDS011;35050;51.316;5.994;2023-03-19T00:04:42;1.77;;;1.08;;
49223;SDS011;35050;51.316;5.994;2023-03-19T00:07:07;1.85;;;1.30;;
49223;SDS011;35050;51.316;5.994;2023-03-19T00:09:33;2.20;;;1.40;;
49223;SDS011;35050;51.316;5.994;2023-03-19T00:11:59;1.77;;;1.40;;
49223;SDS011;35050;51.316;5.994;2023-03-19T00:14:24;1.10;;;1.00;;
49223;SDS011;35050;51.316;5.994;2023-03-19T00:16:50;1.38;;;1.20;;
49223;SDS011;35050;51.316;5.994;2023-03-19T00:19:16;1.38;;;1.20;;
49223;SDS011;35050;51.316;5.994;2023-03-19T00:21:41;1.92;;;1.38;;
49223;SDS011;35050;51.316;5.994;2023-03-19T00:24:07;2.67;;;1.70;;
49223;SDS011;35050;51.316;5.994;2023-03-19T00:26:34;3.45;;;1.77;;
49223;SDS011;35050;51.316;5.994;2023-03-19T00:29:01;1.85;;;1.63;;
49223;SDS011;35050;51.316;5.994;2023-03-19T00:31:27;2.88;;;2.13;;
49223;SDS011;35050;51.316;5.994;2023-03-19T00:33:55;3.13;;;1.70;;
49223;SDS011;35050;51.316;5.994;2023-03-19T00:36:22;3.08;;;1.80;;
49223;SDS011;35050;51.316;5.994;2023-03-19T00:38:49;3.15;;;1.70;;
49223;SDS011;35050;51.316;5.994;2023-03-19T00:41:15;1.95;;;1.48;;
49223;SDS011;35050;51.316;5.994;2023-03-19T00:43:42;2.90;;;2.08;;
49223;SDS011;35050;51.316;5.994;2023-03-19T00:46:08;1.60;;;1.50;;
49223;SDS011;35050;51.316;5.994;2023-03-19T00:48:34;2.92;;;1.38;;
49223;SDS011;35050;51.316;5.994;2023-03-19T00:51:09;1.30;;;1.20;;
49223;SDS011;35050;51.316;5.994;2023-03-19T00:53:36;0.98;;;0.93;;
49223;SDS011;35050;51.316;5.994;2023-03-19T00:56:03;1.58;;;1.48;;
49223;SDS011;35050;51.316;5.994;2023-03-19T00:58:29;2.10;;;1.35;;
49223;SDS011;35050;51.316;5.994;2023-03-19T01:00:55;2.28;;;1.50;;
49223;SDS011;35050;51.316;5.994;2023-03-19T01:03:21;1.45;;;1.30;;
49223;SDS011;35050;51.316;5.994;2023-03-19T01:05:47;2.15;;;1.33;;
49223;SDS011;35050;51.316;5.994;2023-03-19T01:08:14;2.22;;;1.30;;
49223;SDS011;35050;51.316;5.994;2023-03-19T01:10:40;2.17;;;1.52;;
49223;SDS011;35050;51.316;5.994;2023-03-19T01:13:07;2.67;;;1.70;;
49223;SDS011;35050;51.316;5.994;2023-03-19T01:15:36;2.05;;;1.60;;
49223;SDS011;35050;51.316;5.994;2023-03-19T01:18:02;2.42;;;1.70;;
49223;SDS011;35050;51.316;5.994;2023-03-19T01:20:28;2.40;;;1.70;;
49223;SDS011;35050;51.316;5.994;2023-03-19T01:22:54;3.25;;;1.67;;
49223;SDS011;35050;51.316;5.994;2023-03-19T01:25:20;2.35;;;1.92;;
49223;SDS011;35050;51.316;5.994;2023-03-19T01:27:46;2.47;;;1.98;;
49223;SDS011;35050;51.316;5.994;2023-03-19T01:30:11;2.50;;;2.00;;
49223;SDS011;35050;51.316;5.994;2023-03-19T01:32:37;3.88;;;2.50;;
49223;SDS011;35050;51.316;5.994;2023-03-19T01:35:03;3.38;;;2.30;;
49223;SDS011;35050;51.316;5.994;2023-03-19T01:37:29;3.42;;;2.20;;
49223;SDS011;35050;51.316;5.994;2023-03-19T01:39:54;6.25;;;2.53;;
49223;SDS011;35050;51.316;5.994;2023-03-19T01:42:20;2.72;;;1.90;;
49223;SDS011;35050;51.316;5.994;2023-03-19T01:44:46;3.60;;;2.35;;
49223;SDS011;35050;51.316;5.994;2023-03-19T01:50:23;4.03;;;1.85;;
49223;SDS011;35050;51.316;5.994;2023-03-19T01:52:55;3.00;;;2.38;;
49223;SDS011;35050;51.316;5.994;2023-03-19T01:55:21;3.45;;;1.80;;
49223;SDS011;35050;51.316;5.994;2023-03-19T01:57:46;2.08;;;1.73;;
49223;SDS011;35050;51.316;5.994;2023-03-19T02:00:12;3.28;;;2.10;;
49223;SDS011;35050;51.316;5.994;2023-03-19T02:02:38;3.33;;;2.40;;
49223;SDS011;35050;51.316;5.994;2023-03-19T02:07:36;3.08;;;2.25;;
49223;SDS011;35050;51.316;5.994;2023-03-19T02:10:05;3.05;;;1.98;;
49223;SDS011;35050;51.316;5.994;2023-03-19T02:12:33;2.40;;;1.73;;
49223;SDS011;35050;51.316;5.994;2023-03-19T02:14:59;2.33;;;1.77;;
49223;SDS011;35050;51.316;5.994;2023-03-19T02:17:26;2.38;;;2.00;;
49223;SDS011;35050;51.316;5.994;2023-03-19T02:22:35;3.03;;;2.20;;
49223;SDS011;35050;51.316;5.994;2023-03-19T02:25:12;4.35;;;2.50;;
49223;SDS011;35050;51.316;5.994;2023-03-19T02:27:44;4.20;;;2.50;;
49223;SDS011;35050;51.316;5.994;2023-03-19T02:30:16;3.80;;;2.70;;
49223;SDS011;35050;51.316;5.994;2023-03-19T02:32:42;4.50;;;2.40;;
49223;SDS011;35050;51.316;5.994;2023-03-19T02:35:08;5.10;;;2.60;;
49223;SDS011;35050;51.316;5.994;2023-03-19T02:37:34;4.28;;;2.97;;
49223;SDS011;35050;51.316;5.994;2023-03-19T02:40:01;5.35;;;2.78;;
49223;SDS011;35050;51.316;5.994;2023-03-19T02:42:32;4.68;;;2.20;;
49223;SDS011;35050;51.316;5.994;2023-03-19T02:44:58;3.17;;;2.17;;
49223;SDS011;35050;51.316;5.994;2023-03-19T02:47:25;3.55;;;1.83;;
49223;SDS011;35050;51.316;5.994;2023-03-19T02:49:51;1.85;;;1.60;;
49223;SDS011;35050;51.316;5.994;2023-03-19T02:52:17;2.08;;;1.65;;
49223;SDS011;35050;51.316;5.994;2023-03-19T02:54:43;1.52;;;1.42;;
49223;SDS011;35050;51.316;5.994;2023-03-19T02:57:08;1.92;;;1.50;;
49223;SDS011;35050;51.316;5.994;2023-03-19T02:59:34;1.15;;;1.02;;
49223;SDS011;35050;51.316;5.994;2023-03-19T03:02:00;1.30;;;1.20;;
49223;SDS011;35050;51.316;5.994;2023-03-19T03:04:26;2.45;;;1.25;;
49223;SDS011;35050;51.316;5.994;2023-03-19T03:06:51;1.60;;;1.13;;
49223;SDS011;35050;51.316;5.994;2023-03-19T03:09:17;1.08;;;0.98;;
49223;SDS011;35050;51.316;5.994;2023-03-19T03:11:43;1.58;;;1.15;;
49223;SDS011;35050;51.316;5.994;2023-03-19T03:14:09;1.00;;;0.90;;
49223;SDS011;35050;51.316;5.994;2023-03-19T03:16:35;1.10;;;1.00;;
49223;SDS011;35050;51.316;5.994;2023-03-19T03:19:02;1.42;;;1.23;;
49223;SDS011;35050;51.316;5.994;2023-03-19T03:21:28;2.63;;;1.30;;
49223;SDS011;35050;51.316;5.994;2023-03-19T03:23:54;2.03;;;1.67;;
49223;SDS011;35050;51.316;5.994;2023-03-19T03:26:20;2.75;;;1.85;;
49223;SDS011;35050;51.316;5.994;2023-03-19T03:28:45;2.40;;;1.83;;
49223;SDS011;35050;51.316;5.994;2023-03-19T03:31:11;2.58;;;1.83;;
49223;SDS011;35050;51.316;5.994;2023-03-19T03:33:38;2.03;;;1.45;;
49223;SDS011;35050;51.316;5.994;2023-03-19T03:36:04;1.50;;;1.40;;
49223;SDS011;35050;51.316;5.994;2023-03-19T03:38:30;1.90;;;1.40;;
49223;SDS011;35050;51.316;5.994;2023-03-19T03:40:57;1.35;;;1.17;;
49223;SDS011;35050;51.316;5.994;2023-03-19T03:43:23;1.40;;;1.30;;
49223;SDS011;35050;51.316;5.994;2023-03-19T03:45:49;1.77;;;1.40;;
49223;SDS011;35050;51.316;5.994;2023-03-19T03:48:15;1.95;;;1.30;;
49223;SDS011;35050;51.316;5.994;2023-03-19T03:50:41;1.17;;;1.08;;
49223;SDS011;35050;51.316;5.994;2023-03-19T03:53:07;1.27;;;1.02;;
49223;SDS011;35050;51.316;5.994;2023-03-19T03:55:33;1.90;;;1.10;;
49223;SDS011;35050;51.316;5.994;2023-03-19T03:57:59;3.83;;;1.80;;
49223;SDS011;35050;51.316;5.994;2023-03-19T04:00:25;3.30;;;1.80;;
49223;SDS011;35050;51.316;5.994;2023-03-19T04:02:51;2.55;;;1.80;;
49223;SDS011;35050;51.316;5.994;2023-03-19T04:05:17;2.80;;;1.88;;
49223;SDS011;35050;51.316;5.994;2023-03-19T04:07:43;2.15;;;1.85;;
49223;SDS011;35050;51.316;5.994;2023-03-19T04:10:09;2.65;;;1.75;;
49223;SDS011;35050;51.316;5.994;2023-03-19T04:12:36;1.65;;;1.45;;
49223;SDS011;35050;51.316;5.994;2023-03-19T04:15:04;1.60;;;1.27;;
49223;SDS011;35050;51.316;5.994;2023-03-19T04:17:31;3.45;;;1.33;;
49223;SDS011;35050;51.316;5.994;2023-03-19T04:19:57;1.60;;;1.20;;
49223;SDS011;35050;51.316;5.994;2023-03-19T04:22:23;1.70;;;1.30;;
49223;SDS011;35050;51.316;5.994;2023-03-19T04:24:49;1.58;;;1.45;;
49223;SDS011;35050;51.316;5.994;2023-03-19T04:27:15;2.42;;;1.80;;
49223;SDS011;35050;51.316;5.994;2023-03-19T04:29:41;1.85;;;1.48;;
49223;SDS011;35050;51.316;5.994;2023-03-19T04:32:06;2.92;;;2.08;;
49223;SDS011;35050;51.316;5.994;2023-03-19T04:34:32;2.47;;;2.00;;
49223;SDS011;35050;51.316;5.994;2023-03-19T04:36:57;1.80;;;1.67;;
49223;SDS011;35050;51.316;5.994;2023-03-19T04:39:23;3.38;;;2.10;;
49223;SDS011;35050;51.316;5.994;2023-03-19T04:41:49;2.45;;;1.60;;
49223;SDS011;35050;51.316;5.994;2023-03-19T04:44:15;1.67;;;1.58;;
49223;SDS011;35050;51.316;5.994;2023-03-19T04:46:41;2.45;;;2.25;;
49223;SDS011;35050;51.316;5.994;2023-03-19T04:49:09;2.67;;;2.05;;
49223;SDS011;35050;51.316;5.994;2023-03-19T04:51:35;2.50;;;1.90;;
49223;SDS011;35050;51.316;5.994;2023-03-19T04:54:00;1.85;;;1.67;;
49223;SDS011;35050;51.316;5.994;2023-03-19T04:56:26;2.35;;;1.90;;
49223;SDS011;35050;51.316;5.994;2023-03-19T04:58:52;1.75;;;1.65;;
49223;SDS011;35050;51.316;5.994;2023-03-19T05:01:18;1.88;;;1.45;;
49223;SDS011;35050;51.316;5.994;2023-03-19T05:03:44;2.05;;;1.60;;
49223;SDS011;35050;51.316;5.994;2023-03-19T05:06:10;1.52;;;1.42;;
49223;SDS011;35050;51.316;5.994;2023-03-19T05:08:36;1.67;;;1.58;;
49223;SDS011;35050;51.316;5.994;2023-03-19T05:11:02;2.03;;;1.88;;
49223;SDS011;35050;51.316;5.994;2023-03-19T05:13:27;1.65;;;1.50;;
49223;SDS011;35050;51.316;5.994;2023-03-19T05:15:53;1.70;;;1.60;;
49223;SDS011;35050;51.316;5.994;2023-03-19T05:18:21;1.60;;;1.50;;
49223;SDS011;35050;51.316;5.994;2023-03-19T05:20:47;2.20;;;1.40;;
49223;SDS011;35050;51.316;5.994;2023-03-19T05:23:13;1.48;;;1.38;;
49223;SDS011;35050;51.316;5.994;2023-03-19T05:25:39;1.58;;;1.45;;
49223;SDS011;35050;51.316;5.994;2023-03-19T05:28:05;1.40;;;1.30;;
49223;SDS011;35050;51.316;5.994;2023-03-19T05:30:32;2.03;;;1.20;;
49223;SDS011;35050;51.316;5.994;2023-03-19T05:32:59;1.50;;;1.40;;
49223;SDS011;35050;51.316;5.994;2023-03-19T05:35:26;2.30;;;1.50;;
49223;SDS011;35050;51.316;5.994;2023-03-19T05:37:53;1.90;;;1.40;;
49223;SDS011;35050;51.316;5.994;2023-03-19T05:40:19;2.38;;;1.92;;
49223;SDS011;35050;51.316;5.994;2023-03-19T05:42:46;1.92;;;1.73;;
49223;SDS011;35050;51.316;5.994;2023-03-19T05:45:12;2.92;;;1.67;;
49223;SDS011;35050;51.316;5.994;2023-03-19T05:47:38;1.88;;;1.20;;
49223;SDS011;35050;51.316;5.994;2023-03-19T05:50:04;2.38;;;1.65;;
49223;SDS011;35050;51.316;5.994;2023-03-19T05:52:31;2.00;;;1.83;;
49223;SDS011;35050;51.316;5.994;2023-03-19T05:54:56;3.83;;;2.40;;
49223;SDS011;35050;51.316;5.994;2023-03-19T05:57:22;2.67;;;2.20;;
49223;SDS011;35050;51.316;5.994;2023-03-19T05:59:48;2.72;;;2.25;;
49223;SDS011;35050;51.316;5.994;2023-03-19T06:02:14;3.88;;;2.60;;
49223;SDS011;35050;51.316;5.994;2023-03-19T06:04:40;3.60;;;2.90;;
49223;SDS011;35050;51.316;5.994;2023-03-19T06:07:05;4.05;;;3.13;;
49223;SDS011;35050;51.316;5.994;2023-03-19T06:09:31;3.10;;;2.47;;
49223;SDS011;35050;51.316;5.994;2023-03-19T06:11:57;3.20;;;2.90;;
49223;SDS011;35050;51.316;5.994;2023-03-19T06:14:23;4.35;;;2.97;;
49223;SDS011;35050;51.316;5.994;2023-03-19T06:16:48;4.95;;;2.58;;
49223;SDS011;35050;51.316;5.994;2023-03-19T06:19:14;2.70;;;2.50;;
49223;SDS011;35050;51.316;5.994;2023-03-19T06:21:40;2.88;;;2.42;;
49223;SDS011;35050;51.316;5.994;2023-03-19T06:24:06;2.63;;;2.30;;
49223;SDS011;35050;51.316;5.994;2023-03-19T06:26:32;2.45;;;1.92;;
49223;SDS011;35050;51.316;5.994;2023-03-19T06:28:58;3.33;;;2.67;;
49223;SDS011;35050;51.316;5.994;2023-03-19T06:31:23;4.07;;;3.25;;
49223;SDS011;35050;51.316;5.994;2023-03-19T06:33:49;3.03;;;2.72;;
49223;SDS011;35050;51.316;5.994;2023-03-19T06:36:15;3.90;;;2.50;;
49223;SDS011;35050;51.316;5.994;2023-03-19T06:38:42;2.30;;;2.10;;
49223;SDS011;35050;51.316;5.994;2023-03-19T06:41:07;3.28;;;2.97;;
49223;SDS011;35050;51.316;5.994;2023-03-19T06:43:33;3.50;;;3.20;;
49223;SDS011;35050;51.316;5.994;2023-03-19T06:46:02;3.22;;;3.00;;
49223;SDS011;35050;51.316;5.994;2023-03-19T06:48:28;3.60;;;3.30;;
49223;SDS011;35050;51.316;5.994;2023-03-19T06:50:54;3.78;;;3.47;;
49223;SDS011;35050;51.316;5.994;2023-03-19T06:53:19;4.93;;;3.83;;
49223;SDS011;35050;51.316;5.994;2023-03-19T06:55:45;4.28;;;3.83;;
49223;SDS011;35050;51.316;5.994;2023-03-19T06:58:11;3.25;;;3.05;;
49223;SDS011;35050;51.316;5.994;2023-03-19T07:00:37;3.67;;;3.20;;
49223;SDS011;35050;51.316;5.994;2023-03-19T07:03:02;6.68;;;4.57;;
49223;SDS011;35050;51.316;5.994;2023-03-19T07:05:28;5.15;;;4.07;;
49223;SDS011;35050;51.316;5.994;2023-03-19T07:07:54;4.47;;;3.90;;
49223;SDS011;35050;51.316;5.994;2023-03-19T07:10:19;4.05;;;3.38;;
49223;SDS011;35050;51.316;5.994;2023-03-19T07:12:46;3.60;;;3.30;;
49223;SDS011;35050;51.316;5.994;2023-03-19T07:15:12;3.58;;;3.28;;
49223;SDS011;35050;51.316;5.994;2023-03-19T07:17:37;4.35;;;3.95;;
49223;SDS011;35050;51.316;5.994;2023-03-19T07:20:03;3.95;;;3.55;;
49223;SDS011;35050;51.316;5.994;2023-03-19T07:22:29;3.70;;;3.40;;
49223;SDS011;35050;51.316;5.994;2023-03-19T07:24:55;3.80;;;3.40;;
49223;SDS011;35050;51.316;5.994;2023-03-19T07:27:20;2.83;;;2.63;;
49223;SDS011;35050;51.316;5.994;2023-03-19T07:29:46;3.97;;;3.58;;
49223;SDS011;35050;51.316;5.994;2023-03-19T07:32:13;3.75;;;3.35;;
49223;SDS011;35050;51.316;5.994;2023-03-19T07:34:39;3.70;;;3.33;;
49223;SDS011;35050;51.316;5.994;2023-03-19T07:37:05;4.95;;;3.40;;
49223;SDS011;35050;51.316;5.994;2023-03-19T07:39:31;3.70;;;3.40;;
49223;SDS011;35050;51.316;5.994;2023-03-19T07:41:57;4.28;;;3.60;;
49223;SDS011;35050;51.316;5.994;2023-03-19T07:44:22;4.00;;;3.60;;
49223;SDS011;35050;51.316;5.994;2023-03-19T07:46:48;4.00;;;3.63;;
49223;SDS011;35050;51.316;5.994;2023-03-19T07:49:14;4.28;;;3.60;;
49223;SDS011;35050;51.316;5.994;2023-03-19T07:51:39;5.10;;;3.83;;
49223;SDS011;35050;51.316;5.994;2023-03-19T07:54:05;4.53;;;4.10;;
49223;SDS011;35050;51.316;5.994;2023-03-19T07:56:31;5.05;;;4.50;;
49223;SDS011;35050;51.316;5.994;2023-03-19T07:58:57;4.88;;;4.43;;
49223;SDS011;35050;51.316;5.994;2023-03-19T08:01:24;4.68;;;4.28;;
49223;SDS011;35050;51.316;5.994;2023-03-19T08:03:49;4.82;;;4.15;;
49223;SDS011;35050;51.316;5.994;2023-03-19T08:06:15;4.32;;;3.92;;
49223;SDS011;35050;51.316;5.994;2023-03-19T08:08:41;3.75;;;3.35;;
49223;SDS011;35050;51.316;5.994;2023-03-19T08:11:06;3.85;;;3.28;;
49223;SDS011;35050;51.316;5.994;2023-03-19T08:13:32;3.80;;;3.50;;
49223;SDS011;35050;51.316;5.994;2023-03-19T08:15:58;3.72;;;3.30;;
49223;SDS011;35050;51.316;5.994;2023-03-19T08:18:24;3.63;;;3.33;;
49223;SDS011;35050;51.316;5.994;2023-03-19T08:20:51;3.80;;;3.25;;
49223;SDS011;35050;51.316;5.994;2023-03-19T08:23:16;3.78;;;3.40;;
49223;SDS011;35050;51.316;5.994;2023-03-19T08:25:42;4.85;;;3.60;;
49223;SDS011;35050;51.316;5.994;2023-03-19T08:28:09;5.30;;;3.85;;
49223;SDS011;35050;51.316;5.994;2023-03-19T08:30:35;4.75;;;4.25;;
49223;SDS011;35050;51.316;5.994;2023-03-19T08:33:01;3.50;;;3.20;;
49223;SDS011;35050;51.316;5.994;2023-03-19T08:35:27;4.40;;;4.00;;
49223;SDS011;35050;51.316;5.994;2023-03-19T08:37:53;4.13;;;3.22;;
49223;SDS011;35050;51.316;5.994;2023-03-19T08:40:19;3.78;;;3.20;;
49223;SDS011;35050;51.316;5.994;2023-03-19T08:42:45;4.80;;;3.65;;
49223;SDS011;35050;51.316;5.994;2023-03-19T08:45:12;5.15;;;4.07;;
49223;SDS011;35050;51.316;5.994;2023-03-19T08:47:39;3.78;;;3.47;;
49223;SDS011;35050;51.316;5.994;2023-03-19T08:50:06;6.15;;;3.80;;
49223;SDS011;35050;51.316;5.994;2023-03-19T08:52:32;3.70;;;3.15;;
49223;SDS011;35050;51.316;5.994;2023-03-19T08:54:58;3.78;;;3.10;;
49223;SDS011;35050;51.316;5.994;2023-03-19T08:57:23;5.53;;;3.50;;
49223;SDS011;35050;51.316;5.994;2023-03-19T08:59:51;3.13;;;2.80;;
49223;SDS011;35050;51.316;5.994;2023-03-19T09:02:17;2.95;;;2.40;;
49223;SDS011;35050;51.316;5.994;2023-03-19T09:04:42;3.33;;;2.40;;
49223;SDS011;35050;51.316;5.994;2023-03-19T09:07:08;2.47;;;2.00;;
49223;SDS011;35050;51.316;5.994;2023-03-19T09:09:39;3.80;;;3.00;;
49223;SDS011;35050;51.316;5.994;2023-03-19T09:12:07;2.67;;;2.13;;
49223;SDS011;35050;51.316;5.994;2023-03-19T09:14:34;3.20;;;2.40;;
49223;SDS011;35050;51.316;5.994;2023-03-19T09:17:00;3.20;;;2.10;;
49223;SDS011;35050;51.316;5.994;2023-03-19T09:19:26;3.28;;;2.47;;
49223;SDS011;35050;51.316;5.994;2023-03-19T09:21:52;2.90;;;2.22;;
49223;SDS011;35050;51.316;5.994;2023-03-19T09:24:18;5.55;;;2.63;;
49223;SDS011;35050;51.316;5.994;2023-03-19T09:26:44;4.00;;;2.72;;
49223;SDS011;35050;51.316;5.994;2023-03-19T09:29:10;2.88;;;2.00;;
49223;SDS011;35050;51.316;5.994;2023-03-19T09:31:37;3.33;;;1.88;;
49223;SDS011;35050;51.316;5.994;2023-03-19T09:34:03;3.53;;;1.80;;
49223;SDS011;35050;51.316;5.994;2023-03-19T09:36:28;2.55;;;1.70;;
49223;SDS011;35050;51.316;5.994;2023-03-19T09:38:54;4.97;;;2.08;;
49223;SDS011;35050;51.316;5.994;2023-03-19T09:54:29;3.83;;;1.77;;
49223;SDS011;35050;51.316;5.994;2023-03-19T09:57:12;3.33;;;1.80;;
49223;SDS011;35050;51.316;5.994;2023-03-19T09:59:39;2.38;;;1.60;;
49223;SDS011;35050;51.316;5.994;2023-03-19T10:16:36;3.60;;;1.63;;
49223;SDS011;35050;51.316;5.994;2023-03-19T10:19:04;4.65;;;1.83;;
49223;SDS011;35050;51.316;5.994;2023-03-19T10:21:34;4.05;;;1.58;;
49223;SDS011;35050;51.316;5.994;2023-03-19T10:26:57;4.97;;;1.42;;
49223;SDS011;35050;51.316;5.994;2023-03-19T10:29:26;3.28;;;1.33;;
49223;SDS011;35050;51.316;5.994;2023-03-19T10:32:03;3.63;;;1.67;;
49223;SDS011;35050;51.316;5.994;2023-03-19T10:34:42;2.35;;;1.13;;
49223;SDS011;35050;51.316;5.994;2023-03-19T10:39:44;1.80;;;1.00;;
49223;SDS011;35050;51.316;5.994;2023-03-19T10:47:52;1.42;;;1.30;;
49223;SDS011;35050;51.316;5.994;2023-03-19T10:50:41;1.35;;;0.95;;
49223;SDS011;35050;51.316;5.994;2023-03-19T10:58:22;2.92;;;1.15;;
49223;SDS011;35050;51.316;5.994;2023-03-19T11:01:25;4.82;;;1.38;;
49223;SDS011;35050;51.316;5.994;2023-03-19T11:03:49;3.08;;;1.20;;
49223;SDS011;35050;51.316;5.994;2023-03-19T11:09:00;2.83;;;1.23;;
49223;SDS011;35050;51.316;5.994;2023-03-19T11:11:44;3.15;;;1.30;;
49223;SDS011;35050;51.316;5.994;2023-03-19T11:14:18;2.83;;;1.38;;
49223;SDS011;35050;51.316;5.994;2023-03-19T11:17:05;3.88;;;1.77;;
49223;SDS011;35050;51.316;5.994;2023-03-19T11:19:32;2.53;;;1.20;;
49223;SDS011;35050;51.316;5.994;2023-03-19T11:22:08;2.63;;;1.45;;
49223;SDS011;35050;51.316;5.994;2023-03-19T11:28:00;2.25;;;1.30;;
49223;SDS011;35050;51.316;5.994;2023-03-19T11:30:42;2.70;;;1.35;;
49223;SDS011;35050;51.316;5.994;2023-03-19T11:47:41;2.30;;;1.42;;
49223;SDS011;35050;51.316;5.994;2023-03-19T11:50:29;2.90;;;1.45;;
49223;SDS011;35050;51.316;5.994;2023-03-19T12:11:51;2.58;;;1.40;;
49223;SDS011;35050;51.316;5.994;2023-03-19T12:14:30;3.30;;;1.50;;
49223;SDS011;35050;51.316;5.994;2023-03-19T12:30:48;2.75;;;1.23;;
49223;SDS011;35050;51.316;5.994;2023-03-19T12:39:47;2.45;;;1.10;;
49223;SDS011;35050;51.316;5.994;2023-03-19T12:42:22;2.22;;;1.13;;
49223;SDS011;35050;51.316;5.994;2023-03-19T12:44:56;2.05;;;0.98;;
49223;SDS011;35050;51.316;5.994;2023-03-19T12:47:26;1.52;;;0.88;;
49223;SDS011;35050;51.316;5.994;2023-03-19T12:50:06;2.45;;;1.00;;
49223;SDS011;35050;51.316;5.994;2023-03-19T12:55:03;1.88;;;1.00;;
49223;SDS011;35050;51.316;5.994;2023-03-19T13:01:00;1.98;;;1.10;;
49223;SDS011;35050;51.316;5.994;2023-03-19T13:03:36;2.38;;;1.00;;
49223;SDS011;35050;51.316;5.994;2023-03-19T13:06:05;4.53;;;1.23;;
49223;SDS011;35050;51.316;5.994;2023-03-19T13:08:58;3.67;;;1.10;;
49223;SDS011;35050;51.316;5.994;2023-03-19T13:11:43;3.38;;;1.10;;
49223;SDS011;35050;51.316;5.994;2023-03-19T13:14:29;2.58;;;1.20;;
49223;SDS011;35050;51.316;5.994;2023-03-19T13:19:42;4.25;;;1.15;;
49223;SDS011;35050;51.316;5.994;2023-03-19T13:22:14;2.53;;;1.38;;
49223;SDS011;35050;51.316;5.994;2023-03-19T13:24:45;2.28;;;0.90;;
49223;SDS011;35050;51.316;5.994;2023-03-19T13:27:14;1.70;;;1.13;;
49223;SDS011;35050;51.316;5.994;2023-03-19T13:29:56;3.65;;;1.30;;
49223;SDS011;35050;51.316;5.994;2023-03-19T13:32:48;3.55;;;0.80;;
49223;SDS011;35050;51.316;5.994;2023-03-19T13:40:40;2.70;;;1.00;;
49223;SDS011;35050;51.316;5.994;2023-03-19T13:46:01;2.03;;;0.95;;
49223;SDS011;35050;51.316;5.994;2023-03-19T13:55:54;2.45;;;1.33;;
49223;SDS011;35050;51.316;5.994;2023-03-19T13:58:26;3.03;;;1.60;;
49223;SDS011;35050;51.316;5.994;2023-03-19T14:03:52;3.35;;;1.52;;
49223;SDS011;35050;51.316;5.994;2023-03-19T14:08:59;6.00;;;1.58;;
49223;SDS011;35050;51.316;5.994;2023-03-19T14:11:33;3.75;;;1.33;;
49223;SDS011;35050;51.316;5.994;2023-03-19T14:14:04;3.38;;;1.25;;
49223;SDS011;35050;51.316;5.994;2023-03-19T14:16:34;3.55;;;1.45;;
49223;SDS011;35050;51.316;5.994;2023-03-19T14:19:03;2.95;;;1.15;;
49223;SDS011;35050;51.316;5.994;2023-03-19T14:21:39;4.75;;;1.42;;
49223;SDS011;35050;51.316;5.994;2023-03-19T14:24:39;3.80;;;1.38;;
49223;SDS011;35050;51.316;5.994;2023-03-19T14:27:10;3.80;;;1.38;;
49223;SDS011;35050;51.316;5.994;2023-03-19T14:29:43;2.42;;;1.00;;
49223;SDS011;35050;51.316;5.994;2023-03-19T14:32:17;3.45;;;1.17;;
49223;SDS011;35050;51.316;5.994;2023-03-19T14:34:47;3.90;;;1.13;;
49223;SDS011;35050;51.316;5.994;2023-03-19T14:40:13;4.10;;;1.30;;
49223;SDS011;35050;51.316;5.994;2023-03-19T14:48:45;3.78;;;1.45;;
49223;SDS011;35050;51.316;5.994;2023-03-19T14:54:17;3.10;;;1.65;;
49223;SDS011;35050;51.316;5.994;2023-03-19T14:57:04;3.25;;;1.20;;
49223;SDS011;35050;51.316;5.994;2023-03-19T14:59:40;5.00;;;1.40;;
49223;SDS011;35050;51.316;5.994;2023-03-19T15:02:39;2.65;;;1.30;;
49223;SDS011;35050;51.316;5.994;2023-03-19T15:05:03;2.63;;;1.00;;
49223;SDS011;35050;51.316;5.994;2023-03-19T15:07:48;2.83;;;1.08;;
49223;SDS011;35050;51.316;5.994;2023-03-19T15:10:18;3.63;;;1.27;;
49223;SDS011;35050;51.316;5.994;2023-03-19T15:18:07;1.88;;;0.98;;
49223;SDS011;35050;51.316;5.994;2023-03-19T15:20:44;1.38;;;0.85;;
49223;SDS011;35050;51.316;5.994;2023-03-19T15:23:16;1.40;;;0.82;;
49223;SDS011;35050;51.316;5.994;2023-03-19T15:25:44;1.67;;;0.98;;
49223;SDS011;35050;51.316;5.994;2023-03-19T15:28:12;2.30;;;1.08;;
49223;SDS011;35050;51.316;5.994;2023-03-19T15:30:39;3.28;;;1.30;;
49223;SDS011;35050;51.316;5.994;2023-03-19T15:33:21;3.25;;;1.20;;
49223;SDS011;35050;51.316;5.994;2023-03-19T15:35:53;2.78;;;1.40;;
49223;SDS011;35050;51.316;5.994;2023-03-19T15:38:34;2.85;;;1.42;;
49223;SDS011;35050;51.316;5.994;2023-03-19T15:41:03;2.08;;;1.60;;
49223;SDS011;35050;51.316;5.994;2023-03-19T15:43:32;1.88;;;1.60;;
49223;SDS011;35050;51.316;5.994;2023-03-19T15:46:00;1.98;;;1.45;;
49223;SDS011;35050;51.316;5.994;2023-03-19T15:48:27;3.95;;;1.75;;
49223;SDS011;35050;51.316;5.994;2023-03-19T15:51:11;3.83;;;2.00;;
49223;SDS011;35050;51.316;5.994;2023-03-19T15:53:39;2.45;;;1.60;;
49223;SDS011;35050;51.316;5.994;2023-03-19T15:56:05;2.10;;;1.52;;
49223;SDS011;35050;51.316;5.994;2023-03-19T15:58:36;2.03;;;1.40;;
49223;SDS011;35050;51.316;5.994;2023-03-19T16:01:05;2.70;;;1.25;;
49223;SDS011;35050;51.316;5.994;2023-03-19T16:03:37;2.35;;;1.40;;
49223;SDS011;35050;51.316;5.994;2023-03-19T16:06:13;3.05;;;1.40;;
49223;SDS011;35050;51.316;5.994;2023-03-19T16:09:10;1.88;;;1.50;;
49223;SDS011;35050;51.316;5.994;2023-03-19T16:11:37;2.10;;;1.40;;
49223;SDS011;35050;51.316;5.994;2023-03-19T16:17:07;1.75;;;1.50;;
49223;SDS011;35050;51.316;5.994;2023-03-19T16:19:35;2.25;;;1.40;;
49223;SDS011;35050;51.316;5.994;2023-03-19T16:22:09;1.40;;;1.30;;
49223;SDS011;35050;51.316;5.994;2023-03-19T16:24:44;2.75;;;1.60;;
49223;SDS011;35050;51.316;5.994;2023-03-19T16:27:13;2.20;;;1.50;;
49223;SDS011;35050;51.316;5.994;2023-03-19T16:29:44;2.63;;;1.75;;
49223;SDS011;35050;51.316;5.994;2023-03-19T16:32:24;1.50;;;1.40;;
49223;SDS011;35050;51.316;5.994;2023-03-19T16:37:44;2.38;;;1.80;;
49223;SDS011;35050;51.316;5.994;2023-03-19T16:42:46;2.97;;;2.20;;
49223;SDS011;35050;51.316;5.994;2023-03-19T16:47:54;2.72;;;2.00;;
49223;SDS011;35050;51.316;5.994;2023-03-19T16:50:26;2.15;;;1.73;;
49223;SDS011;35050;51.316;5.994;2023-03-19T16:53:17;2.72;;;2.20;;
49223;SDS011;35050;51.316;5.994;2023-03-19T16:55:49;2.83;;;2.08;;
49223;SDS011;35050;51.316;5.994;2023-03-19T16:58:32;2.35;;;2.15;;
49223;SDS011;35050;51.316;5.994;2023-03-19T17:01:00;2.28;;;2.08;;
49223;SDS011;35050;51.316;5.994;2023-03-19T17:03:28;2.30;;;1.73;;
49223;SDS011;35050;51.316;5.994;2023-03-19T17:05:54;2.55;;;2.00;;
49223;SDS011;35050;51.316;5.994;2023-03-19T17:08:21;4.00;;;2.78;;
49223;SDS011;35050;51.316;5.994;2023-03-19T17:10:49;4.57;;;2.80;;
49223;SDS011;35050;51.316;5.994;2023-03-19T17:13:26;3.30;;;2.92;;
49223;SDS011;35050;51.316;5.994;2023-03-19T17:16:01;5.50;;;3.60;;
49223;SDS011;35050;51.316;5.994;2023-03-19T17:18:33;5.50;;;4.43;;
49223;SDS011;35050;51.316;5.994;2023-03-19T17:21:43;4.15;;;3.50;;
49223;SDS011;35050;51.316;5.994;2023-03-19T17:23:53;3.42;;;3.13;;
49223;SDS011;35050;51.316;5.994;2023-03-19T17:26:26;3.35;;;3.03;;
49223;SDS011;35050;51.316;5.994;2023-03-19T17:31:20;3.42;;;3.13;;
49223;SDS011;35050;51.316;5.994;2023-03-19T17:33:49;3.63;;;3.30;;
49223;SDS011;35050;51.316;5.994;2023-03-19T17:36:16;4.03;;;3.63;;
49223;SDS011;35050;51.316;5.994;2023-03-19T17:38:42;4.18;;;3.42;;
49223;SDS011;35050;51.316;5.994;2023-03-19T17:41:12;4.95;;;4.15;;
49223;SDS011;35050;51.316;5.994;2023-03-19T17:43:40;5.95;;;4.78;;
49223;SDS011;35050;51.316;5.994;2023-03-19T17:46:08;5.30;;;4.80;;
49223;SDS011;35050;51.316;5.994;2023-03-19T17:48:45;5.40;;;4.90;;
49223;SDS011;35050;51.316;5.994;2023-03-19T17:51:12;8.98;;;6.18;;